sensor_id;sensor_type;location;lat;lon;timestamp;temperature;humidity
35960;DHT22;22043;50.970;7.192;2023-01-25T00:00:39;3.60;99.90
35960;DHT22;22043;50.970;7.192;2023-01-25T00:03:04;3.60;99.90
35960;DHT22;22043;50.970;7.192;2023-01-25T00:05:30;3.60;99.90
35960;DHT22;22043;50.970;7.192;2023-01-25T00:07:56;3.60;99.90
35960;DHT22;22043;50.970;7.192;2023-01-25T00:10:22;3.60;99.90
35960;DHT22;22043;50.970;7.192;2023-01-25T00:12:48;3.50;99.90
35960;DHT22;22043;50.970;7.192;2023-01-25T00:15:13;3.50;99.90
35960;DHT22;22043;50.970;7.192;2023-01-25T00:17:39;3.50;99.90
35960;DHT22;22043;50.970;7.192;2023-01-25T00:20:05;3.50;99.90
35960;DHT22;22043;50.970;7.192;2023-01-25T00:22:31;3.50;99.90
35960;DHT22;22043;50.970;7.192;2023-01-25T00:24:57;3.50;99.90
35960;DHT22;22043;50.970;7.192;2023-01-25T00:27:22;3.50;99.90
35960;DHT22;22043;50.970;7.192;2023-01-25T00:29:48;3.50;99.90
35960;DHT22;22043;50.970;7.192;2023-01-25T00:34:43;3.50;99.90
35960;DHT22;22043;50.970;7.192;2023-01-25T00:39:42;3.40;99.90
35960;DHT22;22043;50.970;7.192;2023-01-25T00:42:11;3.40;99.90
35960;DHT22;22043;50.970;7.192;2023-01-25T00:44:38;3.40;99.90
35960;DHT22;22043;50.970;7.192;2023-01-25T00:47:04;3.40;99.90
35960;DHT22;22043;50.970;7.192;2023-01-25T00:49:30;3.40;99.90
35960;DHT22;22043;50.970;7.192;2023-01-25T00:51:57;3.40;99.90
35960;DHT22;22043;50.970;7.192;2023-01-25T00:54:23;3.40;99.90
35960;DHT22;22043;50.970;7.192;2023-01-25T00:56:49;3.40;99.90
35960;DHT22;22043;50.970;7.192;2023-01-25T00:59:17;3.40;99.90
35960;DHT22;22043;50.970;7.192;2023-01-25T01:01:43;3.40;99.90
35960;DHT22;22043;50.970;7.192;2023-01-25T01:04:09;3.40;99.90
35960;DHT22;22043;50.970;7.192;2023-01-25T01:06:36;3.40;99.90
35960;DHT22;22043;50.970;7.192;2023-01-25T01:09:03;3.40;99.90
35960;DHT22;22043;50.970;7.192;2023-01-25T01:11:29;3.40;99.90
35960;DHT22;22043;50.970;7.192;2023-01-25T01:13:57;3.40;99.90
35960;DHT22;22043;50.970;7.192;2023-01-25T01:16:23;3.40;99.90
35960;DHT22;22043;50.970;7.192;2023-01-25T01:18:51;3.40;99.90
35960;DHT22;22043;50.970;7.192;2023-01-25T01:21:17;3.50;99.90
35960;DHT22;22043;50.970;7.192;2023-01-25T01:23:43;3.50;99.90
35960;DHT22;22043;50.970;7.192;2023-01-25T01:26:12;3.50;99.90
35960;DHT22;22043;50.970;7.192;2023-01-25T01:28:38;3.50;99.90
35960;DHT22;22043;50.970;7.192;2023-01-25T01:31:10;3.40;99.90
35960;DHT22;22043;50.970;7.192;2023-01-25T01:33:40;3.50;99.90
35960;DHT22;22043;50.970;7.192;2023-01-25T01:36:13;3.40;99.90
35960;DHT22;22043;50.970;7.192;2023-01-25T01:38:39;3.50;99.90
35960;DHT22;22043;50.970;7.192;2023-01-25T01:41:06;3.40;99.90
35960;DHT22;22043;50.970;7.192;2023-01-25T01:43:32;3.50;99.90
35960;DHT22;22043;50.970;7.192;2023-01-25T01:46:02;3.50;99.90
35960;DHT22;22043;50.970;7.192;2023-01-25T01:51:16;3.40;99.90
35960;DHT22;22043;50.970;7.192;2023-01-25T01:53:47;3.40;99.90
35960;DHT22;22043;50.970;7.192;2023-01-25T01:56:17;3.40;99.90
35960;DHT22;22043;50.970;7.192;2023-01-25T01:58:45;3.40;99.90
35960;DHT22;22043;50.970;7.192;2023-01-25T02:01:12;3.40;99.90
35960;DHT22;22043;50.970;7.192;2023-01-25T02:03:38;3.40;99.90
35960;DHT22;22043;50.970;7.192;2023-01-25T02:08:51;3.40;99.90
35960;DHT22;22043;50.970;7.192;2023-01-25T02:11:17;3.40;99.90
35960;DHT22;22043;50.970;7.192;2023-01-25T02:13:43;3.40;99.90
35960;DHT22;22043;50.970;7.192;2023-01-25T02:16:15;3.40;99.90
35960;DHT22;22043;50.970;7.192;2023-01-25T02:18:43;3.40;99.90
35960;DHT22;22043;50.970;7.192;2023-01-25T02:21:10;3.40;99.90
35960;DHT22;22043;50.970;7.192;2023-01-25T02:24:36;3.40;99.90
35960;DHT22;22043;50.970;7.192;2023-01-25T02:26:30;3.40;99.90
35960;DHT22;22043;50.970;7.192;2023-01-25T02:29:05;3.40;99.90
35960;DHT22;22043;50.970;7.192;2023-01-25T02:31:31;3.40;99.90
35960;DHT22;22043;50.970;7.192;2023-01-25T02:33:59;3.40;99.90
35960;DHT22;22043;50.970;7.192;2023-01-25T02:36:30;3.30;99.90
35960;DHT22;22043;50.970;7.192;2023-01-25T02:39:07;3.30;99.90
35960;DHT22;22043;50.970;7.192;2023-01-25T02:41:37;3.30;99.90
35960;DHT22;22043;50.970;7.192;2023-01-25T02:44:07;3.30;99.90
35960;DHT22;22043;50.970;7.192;2023-01-25T02:46:37;3.30;99.90
35960;DHT22;22043;50.970;7.192;2023-01-25T02:49:04;3.40;99.90
35960;DHT22;22043;50.970;7.192;2023-01-25T02:51:33;3.40;99.90
35960;DHT22;22043;50.970;7.192;2023-01-25T02:54:00;3.40;99.90
35960;DHT22;22043;50.970;7.192;2023-01-25T02:56:27;3.30;99.90
35960;DHT22;22043;50.970;7.192;2023-01-25T02:58:52;3.40;99.90
35960;DHT22;22043;50.970;7.192;2023-01-25T03:01:19;3.40;99.90
35960;DHT22;22043;50.970;7.192;2023-01-25T03:03:45;3.30;99.90
35960;DHT22;22043;50.970;7.192;2023-01-25T03:06:11;3.40;99.90
35960;DHT22;22043;50.970;7.192;2023-01-25T03:08:38;3.30;99.90
35960;DHT22;22043;50.970;7.192;2023-01-25T03:11:05;3.40;99.90
35960;DHT22;22043;50.970;7.192;2023-01-25T03:13:31;3.40;99.90
35960;DHT22;22043;50.970;7.192;2023-01-25T03:16:06;3.40;99.90
35960;DHT22;22043;50.970;7.192;2023-01-25T03:18:33;3.40;99.90
35960;DHT22;22043;50.970;7.192;2023-01-25T03:21:14;3.40;99.90
35960;DHT22;22043;50.970;7.192;2023-01-25T03:23:41;3.40;99.90
35960;DHT22;22043;50.970;7.192;2023-01-25T03:26:18;3.30;99.90
35960;DHT22;22043;50.970;7.192;2023-01-25T03:29:22;3.30;99.90
35960;DHT22;22043;50.970;7.192;2023-01-25T03:31:49;3.30;99.90
35960;DHT22;22043;50.970;7.192;2023-01-25T03:34:14;3.30;99.90
35960;DHT22;22043;50.970;7.192;2023-01-25T03:36:41;3.30;99.90
35960;DHT22;22043;50.970;7.192;2023-01-25T03:39:08;3.20;99.90
35960;DHT22;22043;50.970;7.192;2023-01-25T03:41:38;3.20;99.90
35960;DHT22;22043;50.970;7.192;2023-01-25T03:44:08;3.20;99.90
35960;DHT22;22043;50.970;7.192;2023-01-25T03:46:37;3.30;99.90
35960;DHT22;22043;50.970;7.192;2023-01-25T03:49:04;3.40;99.90
35960;DHT22;22043;50.970;7.192;2023-01-25T03:51:29;3.40;99.90
35960;DHT22;22043;50.970;7.192;2023-01-25T03:53:56;3.30;99.90
35960;DHT22;22043;50.970;7.192;2023-01-25T03:56:22;3.30;99.90
35960;DHT22;22043;50.970;7.192;2023-01-25T03:58:56;3.30;99.90
35960;DHT22;22043;50.970;7.192;2023-01-25T04:01:21;3.40;99.90
35960;DHT22;22043;50.970;7.192;2023-01-25T04:03:48;3.40;99.90
35960;DHT22;22043;50.970;7.192;2023-01-25T04:06:15;3.30;99.90
35960;DHT22;22043;50.970;7.192;2023-01-25T04:08:42;3.30;99.90
35960;DHT22;22043;50.970;7.192;2023-01-25T04:11:09;3.30;99.90
35960;DHT22;22043;50.970;7.192;2023-01-25T04:13:35;3.20;99.90
35960;DHT22;22043;50.970;7.192;2023-01-25T04:16:07;3.20;99.90
35960;DHT22;22043;50.970;7.192;2023-01-25T04:18:52;3.20;99.90
35960;DHT22;22043;50.970;7.192;2023-01-25T04:21:18;3.10;99.90
35960;DHT22;22043;50.970;7.192;2023-01-25T04:23:44;3.10;99.90
35960;DHT22;22043;50.970;7.192;2023-01-25T04:26:10;3.10;99.90
35960;DHT22;22043;50.970;7.192;2023-01-25T04:28:38;3.10;99.90
35960;DHT22;22043;50.970;7.192;2023-01-25T04:31:06;3.10;99.90
35960;DHT22;22043;50.970;7.192;2023-01-25T04:33:37;3.00;99.90
35960;DHT22;22043;50.970;7.192;2023-01-25T04:36:03;3.00;99.90
35960;DHT22;22043;50.970;7.192;2023-01-25T04:38:30;3.00;99.90
35960;DHT22;22043;50.970;7.192;2023-01-25T04:40:56;3.10;99.90
35960;DHT22;22043;50.970;7.192;2023-01-25T04:43:21;3.10;99.90
35960;DHT22;22043;50.970;7.192;2023-01-25T04:45:52;3.10;99.90
35960;DHT22;22043;50.970;7.192;2023-01-25T04:48:23;3.10;99.90
35960;DHT22;22043;50.970;7.192;2023-01-25T04:50:55;3.20;99.90
35960;DHT22;22043;50.970;7.192;2023-01-25T04:53:22;3.20;99.90
35960;DHT22;22043;50.970;7.192;2023-01-25T04:55:48;3.10;99.90
35960;DHT22;22043;50.970;7.192;2023-01-25T04:58:15;3.20;99.90
35960;DHT22;22043;50.970;7.192;2023-01-25T05:00:41;3.10;99.90
35960;DHT22;22043;50.970;7.192;2023-01-25T05:03:09;3.10;99.90
35960;DHT22;22043;50.970;7.192;2023-01-25T05:05:35;3.10;99.90
35960;DHT22;22043;50.970;7.192;2023-01-25T05:08:06;3.10;99.90
35960;DHT22;22043;50.970;7.192;2023-01-25T05:10:31;3.10;99.90
35960;DHT22;22043;50.970;7.192;2023-01-25T05:13:23;3.10;99.90
35960;DHT22;22043;50.970;7.192;2023-01-25T05:16:01;3.20;99.90
35960;DHT22;22043;50.970;7.192;2023-01-25T05:18:27;3.20;99.90
35960;DHT22;22043;50.970;7.192;2023-01-25T05:20:54;3.20;99.90
35960;DHT22;22043;50.970;7.192;2023-01-25T05:23:21;3.20;99.90
35960;DHT22;22043;50.970;7.192;2023-01-25T05:25:48;3.30;99.90
35960;DHT22;22043;50.970;7.192;2023-01-25T05:28:33;3.30;99.90
35960;DHT22;22043;50.970;7.192;2023-01-25T05:31:14;3.30;99.90
35960;DHT22;22043;50.970;7.192;2023-01-25T05:33:40;3.30;99.90
35960;DHT22;22043;50.970;7.192;2023-01-25T05:36:07;3.20;99.90
35960;DHT22;22043;50.970;7.192;2023-01-25T05:38:35;3.20;99.90
35960;DHT22;22043;50.970;7.192;2023-01-25T05:41:01;3.20;99.90
35960;DHT22;22043;50.970;7.192;2023-01-25T05:43:27;3.20;99.90
35960;DHT22;22043;50.970;7.192;2023-01-25T05:45:53;3.20;99.90
35960;DHT22;22043;50.970;7.192;2023-01-25T05:48:19;3.20;99.90
35960;DHT22;22043;50.970;7.192;2023-01-25T05:50:45;3.20;99.90
35960;DHT22;22043;50.970;7.192;2023-01-25T05:53:20;3.10;99.90
35960;DHT22;22043;50.970;7.192;2023-01-25T05:55:48;3.20;99.90
35960;DHT22;22043;50.970;7.192;2023-01-25T05:58:15;3.20;99.90
35960;DHT22;22043;50.970;7.192;2023-01-25T06:00:41;3.20;99.90
35960;DHT22;22043;50.970;7.192;2023-01-25T06:03:10;3.20;99.90
35960;DHT22;22043;50.970;7.192;2023-01-25T06:05:37;3.10;99.90
35960;DHT22;22043;50.970;7.192;2023-01-25T06:08:03;3.10;99.90
35960;DHT22;22043;50.970;7.192;2023-01-25T06:10:39;3.10;99.90
35960;DHT22;22043;50.970;7.192;2023-01-25T06:13:05;3.10;99.90
35960;DHT22;22043;50.970;7.192;2023-01-25T06:15:30;3.10;99.90
35960;DHT22;22043;50.970;7.192;2023-01-25T06:18:16;3.10;99.90
35960;DHT22;22043;50.970;7.192;2023-01-25T06:21:01;3.10;99.90
35960;DHT22;22043;50.970;7.192;2023-01-25T06:23:34;3.10;99.90
35960;DHT22;22043;50.970;7.192;2023-01-25T06:26:03;3.10;99.90
35960;DHT22;22043;50.970;7.192;2023-01-25T06:28:33;3.10;99.90
35960;DHT22;22043;50.970;7.192;2023-01-25T06:31:11;3.10;99.90
35960;DHT22;22043;50.970;7.192;2023-01-25T06:33:37;3.00;99.90
35960;DHT22;22043;50.970;7.192;2023-01-25T06:36:10;3.00;99.90
35960;DHT22;22043;50.970;7.192;2023-01-25T06:38:36;2.90;99.90
35960;DHT22;22043;50.970;7.192;2023-01-25T06:41:03;2.90;99.90
35960;DHT22;22043;50.970;7.192;2023-01-25T06:43:31;2.90;99.90
35960;DHT22;22043;50.970;7.192;2023-01-25T06:46:00;2.80;99.90
35960;DHT22;22043;50.970;7.192;2023-01-25T06:48:28;2.80;99.90
35960;DHT22;22043;50.970;7.192;2023-01-25T06:50:59;2.80;99.90
35960;DHT22;22043;50.970;7.192;2023-01-25T06:53:26;2.80;99.90
35960;DHT22;22043;50.970;7.192;2023-01-25T06:56:02;2.80;99.90
35960;DHT22;22043;50.970;7.192;2023-01-25T06:58:29;2.80;99.90
35960;DHT22;22043;50.970;7.192;2023-01-25T07:01:00;2.90;99.90
35960;DHT22;22043;50.970;7.192;2023-01-25T07:03:26;2.90;99.90
35960;DHT22;22043;50.970;7.192;2023-01-25T07:05:59;2.90;99.90
35960;DHT22;22043;50.970;7.192;2023-01-25T07:08:26;2.90;99.90
35960;DHT22;22043;50.970;7.192;2023-01-25T07:10:56;2.90;99.90
35960;DHT22;22043;50.970;7.192;2023-01-25T07:13:26;3.00;99.90
35960;DHT22;22043;50.970;7.192;2023-01-25T07:15:58;3.00;99.90
35960;DHT22;22043;50.970;7.192;2023-01-25T07:18:24;3.00;99.90
35960;DHT22;22043;50.970;7.192;2023-01-25T07:20:51;3.00;99.90
35960;DHT22;22043;50.970;7.192;2023-01-25T07:23:18;2.90;99.90
35960;DHT22;22043;50.970;7.192;2023-01-25T07:25:48;3.00;99.90
35960;DHT22;22043;50.970;7.192;2023-01-25T07:28:15;2.90;99.90
35960;DHT22;22043;50.970;7.192;2023-01-25T07:30:41;2.90;99.90
35960;DHT22;22043;50.970;7.192;2023-01-25T07:33:08;2.80;99.90
35960;DHT22;22043;50.970;7.192;2023-01-25T07:35:34;2.90;99.90
35960;DHT22;22043;50.970;7.192;2023-01-25T07:38:00;2.80;99.90
35960;DHT22;22043;50.970;7.192;2023-01-25T07:40:26;2.80;99.90
35960;DHT22;22043;50.970;7.192;2023-01-25T07:42:52;2.80;99.90
35960;DHT22;22043;50.970;7.192;2023-01-25T07:45:18;2.90;99.90
35960;DHT22;22043;50.970;7.192;2023-01-25T07:47:44;2.80;99.90
35960;DHT22;22043;50.970;7.192;2023-01-25T07:50:10;2.90;99.90
35960;DHT22;22043;50.970;7.192;2023-01-25T07:52:36;2.90;99.90
35960;DHT22;22043;50.970;7.192;2023-01-25T07:55:02;2.90;99.90
35960;DHT22;22043;50.970;7.192;2023-01-25T07:57:28;2.90;99.90
35960;DHT22;22043;50.970;7.192;2023-01-25T07:59:54;2.90;99.90
35960;DHT22;22043;50.970;7.192;2023-01-25T08:02:20;2.90;99.90
35960;DHT22;22043;50.970;7.192;2023-01-25T08:04:45;2.90;99.90
35960;DHT22;22043;50.970;7.192;2023-01-25T08:07:12;3.00;99.90
35960;DHT22;22043;50.970;7.192;2023-01-25T08:09:38;3.00;99.90
35960;DHT22;22043;50.970;7.192;2023-01-25T08:12:05;3.00;99.90
35960;DHT22;22043;50.970;7.192;2023-01-25T08:14:31;3.00;99.90
35960;DHT22;22043;50.970;7.192;2023-01-25T08:16:56;3.00;99.90
35960;DHT22;22043;50.970;7.192;2023-01-25T08:19:22;3.00;99.90
35960;DHT22;22043;50.970;7.192;2023-01-25T08:21:49;2.90;99.90
35960;DHT22;22043;50.970;7.192;2023-01-25T08:24:15;2.90;99.90
35960;DHT22;22043;50.970;7.192;2023-01-25T08:26:40;2.90;99.90
35960;DHT22;22043;50.970;7.192;2023-01-25T08:29:10;3.00;99.90
35960;DHT22;22043;50.970;7.192;2023-01-25T08:31:36;3.00;99.90
35960;DHT22;22043;50.970;7.192;2023-01-25T08:34:04;3.00;99.90
35960;DHT22;22043;50.970;7.192;2023-01-25T08:36:29;3.00;99.90
35960;DHT22;22043;50.970;7.192;2023-01-25T08:38:57;3.00;99.90
35960;DHT22;22043;50.970;7.192;2023-01-25T08:41:24;3.00;99.90
35960;DHT22;22043;50.970;7.192;2023-01-25T08:43:51;3.00;99.90
35960;DHT22;22043;50.970;7.192;2023-01-25T08:46:18;3.00;99.90
35960;DHT22;22043;50.970;7.192;2023-01-25T08:48:44;3.00;99.90
35960;DHT22;22043;50.970;7.192;2023-01-25T08:51:14;3.00;99.90
35960;DHT22;22043;50.970;7.192;2023-01-25T08:53:41;3.00;99.90
35960;DHT22;22043;50.970;7.192;2023-01-25T08:56:11;3.00;99.90
35960;DHT22;22043;50.970;7.192;2023-01-25T08:58:39;3.00;99.90
35960;DHT22;22043;50.970;7.192;2023-01-25T09:01:06;3.00;99.90
35960;DHT22;22043;50.970;7.192;2023-01-25T09:03:38;3.00;99.90
35960;DHT22;22043;50.970;7.192;2023-01-25T09:06:05;3.00;99.90
35960;DHT22;22043;50.970;7.192;2023-01-25T09:08:31;3.00;99.90
35960;DHT22;22043;50.970;7.192;2023-01-25T09:11:01;3.00;99.90
35960;DHT22;22043;50.970;7.192;2023-01-25T09:13:27;3.00;99.90
35960;DHT22;22043;50.970;7.192;2023-01-25T09:15:58;3.00;99.90
35960;DHT22;22043;50.970;7.192;2023-01-25T09:18:24;3.00;99.90
35960;DHT22;22043;50.970;7.192;2023-01-25T09:20:49;3.10;99.90
35960;DHT22;22043;50.970;7.192;2023-01-25T09:23:15;3.00;99.90
35960;DHT22;22043;50.970;7.192;2023-01-25T09:25:41;3.10;99.90
35960;DHT22;22043;50.970;7.192;2023-01-25T09:28:07;3.10;99.90
35960;DHT22;22043;50.970;7.192;2023-01-25T09:30:37;3.00;99.90
35960;DHT22;22043;50.970;7.192;2023-01-25T09:33:03;3.00;99.90
35960;DHT22;22043;50.970;7.192;2023-01-25T09:35:29;3.00;99.90
35960;DHT22;22043;50.970;7.192;2023-01-25T09:37:55;3.00;99.90
35960;DHT22;22043;50.970;7.192;2023-01-25T09:40:22;3.00;99.90
35960;DHT22;22043;50.970;7.192;2023-01-25T09:43:05;3.00;99.90
35960;DHT22;22043;50.970;7.192;2023-01-25T09:45:36;3.00;99.90
35960;DHT22;22043;50.970;7.192;2023-01-25T09:53:42;3.00;99.90
35960;DHT22;22043;50.970;7.192;2023-01-25T09:56:26;3.00;99.90
35960;DHT22;22043;50.970;7.192;2023-01-25T09:59:04;3.00;99.90
35960;DHT22;22043;50.970;7.192;2023-01-25T10:01:50;3.00;99.90
35960;DHT22;22043;50.970;7.192;2023-01-25T10:04:20;3.00;99.90
35960;DHT22;22043;50.970;7.192;2023-01-25T10:06:53;3.00;99.90
35960;DHT22;22043;50.970;7.192;2023-01-25T10:09:32;2.90;99.90
35960;DHT22;22043;50.970;7.192;2023-01-25T10:12:06;2.90;99.90
35960;DHT22;22043;50.970;7.192;2023-01-25T10:14:36;2.90;99.90
35960;DHT22;22043;50.970;7.192;2023-01-25T10:17:26;2.90;99.90
35960;DHT22;22043;50.970;7.192;2023-01-25T10:20:08;2.90;99.90
35960;DHT22;22043;50.970;7.192;2023-01-25T10:25:36;2.90;99.90
35960;DHT22;22043;50.970;7.192;2023-01-25T10:31:04;3.00;99.90
35960;DHT22;22043;50.970;7.192;2023-01-25T10:33:32;3.00;99.90
35960;DHT22;22043;50.970;7.192;2023-01-25T10:36:01;3.00;99.90
35960;DHT22;22043;50.970;7.192;2023-01-25T10:38:35;3.00;99.90
35960;DHT22;22043;50.970;7.192;2023-01-25T10:43:37;3.10;99.90
35960;DHT22;22043;50.970;7.192;2023-01-25T10:46:10;3.10;99.90
35960;DHT22;22043;50.970;7.192;2023-01-25T10:48:40;3.10;99.90
35960;DHT22;22043;50.970;7.192;2023-01-25T10:51:05;3.20;99.90
35960;DHT22;22043;50.970;7.192;2023-01-25T10:53:33;3.20;99.90
35960;DHT22;22043;50.970;7.192;2023-01-25T10:56:05;3.20;99.90
35960;DHT22;22043;50.970;7.192;2023-01-25T10:58:41;3.10;99.90
35960;DHT22;22043;50.970;7.192;2023-01-25T11:01:11;3.10;99.90
35960;DHT22;22043;50.970;7.192;2023-01-25T11:03:42;3.10;99.90
35960;DHT22;22043;50.970;7.192;2023-01-25T11:06:11;3.10;99.90
35960;DHT22;22043;50.970;7.192;2023-01-25T11:08:38;3.20;99.90
35960;DHT22;22043;50.970;7.192;2023-01-25T11:11:21;3.20;99.90
35960;DHT22;22043;50.970;7.192;2023-01-25T11:13:48;3.10;99.90
35960;DHT22;22043;50.970;7.192;2023-01-25T11:16:32;3.10;99.90
35960;DHT22;22043;50.970;7.192;2023-01-25T11:18:59;3.10;99.90
35960;DHT22;22043;50.970;7.192;2023-01-25T11:21:32;3.20;99.90
35960;DHT22;22043;50.970;7.192;2023-01-25T11:26:27;3.20;99.90
35960;DHT22;22043;50.970;7.192;2023-01-25T11:31:38;3.20;99.90
35960;DHT22;22043;50.970;7.192;2023-01-25T11:34:15;3.20;99.90
35960;DHT22;22043;50.970;7.192;2023-01-25T11:37:04;3.20;99.90
35960;DHT22;22043;50.970;7.192;2023-01-25T11:40:13;3.10;99.90
35960;DHT22;22043;50.970;7.192;2023-01-25T11:50:44;3.10;99.90
35960;DHT22;22043;50.970;7.192;2023-01-25T11:53:32;3.20;99.90
35960;DHT22;22043;50.970;7.192;2023-01-25T11:56:08;3.10;99.90
35960;DHT22;22043;50.970;7.192;2023-01-25T12:07:33;3.10;99.90
35960;DHT22;22043;50.970;7.192;2023-01-25T12:13:09;3.20;99.90
35960;DHT22;22043;50.970;7.192;2023-01-25T12:21:31;3.20;99.90
35960;DHT22;22043;50.970;7.192;2023-01-25T12:24:43;3.20;99.90
35960;DHT22;22043;50.970;7.192;2023-01-25T12:29:57;3.20;99.90
35960;DHT22;22043;50.970;7.192;2023-01-25T12:32:32;3.20;99.90
35960;DHT22;22043;50.970;7.192;2023-01-25T12:35:29;3.20;99.90
35960;DHT22;22043;50.970;7.192;2023-01-25T12:38:02;3.20;99.90
35960;DHT22;22043;50.970;7.192;2023-01-25T12:43:17;3.20;99.90
35960;DHT22;22043;50.970;7.192;2023-01-25T12:45:46;3.20;99.90
35960;DHT22;22043;50.970;7.192;2023-01-25T12:48:21;3.20;99.90
35960;DHT22;22043;50.970;7.192;2023-01-25T12:50:56;3.20;99.90
35960;DHT22;22043;50.970;7.192;2023-01-25T12:53:41;3.10;99.90
35960;DHT22;22043;50.970;7.192;2023-01-25T12:56:24;3.20;99.90
35960;DHT22;22043;50.970;7.192;2023-01-25T12:59:05;3.20;99.90
35960;DHT22;22043;50.970;7.192;2023-01-25T13:09:48;3.00;99.90
35960;DHT22;22043;50.970;7.192;2023-01-25T13:12:16;3.00;99.90
35960;DHT22;22043;50.970;7.192;2023-01-25T13:14:41;3.00;99.90
35960;DHT22;22043;50.970;7.192;2023-01-25T13:17:37;3.10;99.90
35960;DHT22;22043;50.970;7.192;2023-01-25T13:23:29;3.10;99.90
35960;DHT22;22043;50.970;7.192;2023-01-25T13:28:47;3.10;99.90
35960;DHT22;22043;50.970;7.192;2023-01-25T13:37:28;3.00;99.90
35960;DHT22;22043;50.970;7.192;2023-01-25T13:39:55;3.00;99.90
35960;DHT22;22043;50.970;7.192;2023-01-25T13:42:30;3.00;99.90
35960;DHT22;22043;50.970;7.192;2023-01-25T13:45:03;3.00;99.90
35960;DHT22;22043;50.970;7.192;2023-01-25T13:47:37;3.00;99.90
35960;DHT22;22043;50.970;7.192;2023-01-25T13:53:00;3.10;99.90
35960;DHT22;22043;50.970;7.192;2023-01-25T13:55:27;3.20;99.90
35960;DHT22;22043;50.970;7.192;2023-01-25T13:58:14;3.20;99.90
35960;DHT22;22043;50.970;7.192;2023-01-25T14:03:26;3.20;99.90
35960;DHT22;22043;50.970;7.192;2023-01-25T14:05:55;3.10;99.90
35960;DHT22;22043;50.970;7.192;2023-01-25T14:08:21;3.10;99.90
35960;DHT22;22043;50.970;7.192;2023-01-25T14:10:48;3.10;99.90
35960;DHT22;22043;50.970;7.192;2023-01-25T14:13:15;3.00;99.90
35960;DHT22;22043;50.970;7.192;2023-01-25T14:15:51;3.10;99.90
35960;DHT22;22043;50.970;7.192;2023-01-25T14:18:19;3.00;99.90
35960;DHT22;22043;50.970;7.192;2023-01-25T14:20:47;3.00;99.90
35960;DHT22;22043;50.970;7.192;2023-01-25T14:23:29;3.10;99.90
35960;DHT22;22043;50.970;7.192;2023-01-25T14:25:57;3.10;99.90
35960;DHT22;22043;50.970;7.192;2023-01-25T14:28:24;3.10;99.90
35960;DHT22;22043;50.970;7.192;2023-01-25T14:30:53;3.00;99.90
35960;DHT22;22043;50.970;7.192;2023-01-25T14:33:28;3.00;99.90
35960;DHT22;22043;50.970;7.192;2023-01-25T14:36:04;3.00;99.90
35960;DHT22;22043;50.970;7.192;2023-01-25T14:38:38;3.00;99.90
35960;DHT22;22043;50.970;7.192;2023-01-25T14:41:23;3.00;99.90
35960;DHT22;22043;50.970;7.192;2023-01-25T14:44:01;3.00;99.90
35960;DHT22;22043;50.970;7.192;2023-01-25T14:46:34;3.00;99.90
35960;DHT22;22043;50.970;7.192;2023-01-25T14:51:51;2.90;99.90
35960;DHT22;22043;50.970;7.192;2023-01-25T14:54:21;2.90;99.90
35960;DHT22;22043;50.970;7.192;2023-01-25T14:56:59;2.80;99.90
35960;DHT22;22043;50.970;7.192;2023-01-25T14:59:37;2.80;99.90
35960;DHT22;22043;50.970;7.192;2023-01-25T15:04:58;2.80;99.90
35960;DHT22;22043;50.970;7.192;2023-01-25T15:10:21;2.80;99.90
35960;DHT22;22043;50.970;7.192;2023-01-25T15:15:36;2.70;99.90
35960;DHT22;22043;50.970;7.192;2023-01-25T15:18:02;2.70;99.90
35960;DHT22;22043;50.970;7.192;2023-01-25T15:20:36;2.70;99.90
35960;DHT22;22043;50.970;7.192;2023-01-25T15:23:23;2.60;99.90
35960;DHT22;22043;50.970;7.192;2023-01-25T15:25:54;2.70;99.90
35960;DHT22;22043;50.970;7.192;2023-01-25T15:28:21;2.70;99.90
35960;DHT22;22043;50.970;7.192;2023-01-25T15:30:48;2.80;99.90
35960;DHT22;22043;50.970;7.192;2023-01-25T15:33:21;2.70;99.90
35960;DHT22;22043;50.970;7.192;2023-01-25T15:35:49;2.70;99.90
35960;DHT22;22043;50.970;7.192;2023-01-25T15:38:15;2.70;99.90
35960;DHT22;22043;50.970;7.192;2023-01-25T15:40:42;2.70;99.90
35960;DHT22;22043;50.970;7.192;2023-01-25T15:43:14;2.70;99.90
35960;DHT22;22043;50.970;7.192;2023-01-25T15:45:42;2.70;99.90
35960;DHT22;22043;50.970;7.192;2023-01-25T15:48:12;2.70;99.90
35960;DHT22;22043;50.970;7.192;2023-01-25T15:50:39;2.60;99.90
35960;DHT22;22043;50.970;7.192;2023-01-25T15:53:05;2.60;99.90
35960;DHT22;22043;50.970;7.192;2023-01-25T15:55:32;2.60;99.90
35960;DHT22;22043;50.970;7.192;2023-01-25T15:57:57;2.60;99.90
35960;DHT22;22043;50.970;7.192;2023-01-25T16:00:23;2.60;99.90
35960;DHT22;22043;50.970;7.192;2023-01-25T16:02:49;2.60;99.90
35960;DHT22;22043;50.970;7.192;2023-01-25T16:05:15;2.60;99.90
35960;DHT22;22043;50.970;7.192;2023-01-25T16:07:43;2.60;99.90
35960;DHT22;22043;50.970;7.192;2023-01-25T16:10:21;2.70;99.90
35960;DHT22;22043;50.970;7.192;2023-01-25T16:12:47;2.70;99.90
35960;DHT22;22043;50.970;7.192;2023-01-25T16:15:13;2.70;99.90
35960;DHT22;22043;50.970;7.192;2023-01-25T16:17:38;2.60;99.90
35960;DHT22;22043;50.970;7.192;2023-01-25T16:20:05;2.60;99.90
35960;DHT22;22043;50.970;7.192;2023-01-25T16:22:31;2.50;99.90
35960;DHT22;22043;50.970;7.192;2023-01-25T16:24:57;2.60;99.90
35960;DHT22;22043;50.970;7.192;2023-01-25T16:27:23;2.60;99.90
35960;DHT22;22043;50.970;7.192;2023-01-25T16:30:01;2.70;99.90
35960;DHT22;22043;50.970;7.192;2023-01-25T16:32:27;2.60;99.90
35960;DHT22;22043;50.970;7.192;2023-01-25T16:34:52;2.70;99.90
35960;DHT22;22043;50.970;7.192;2023-01-25T16:37:18;2.70;99.90
35960;DHT22;22043;50.970;7.192;2023-01-25T16:39:44;2.70;99.90
35960;DHT22;22043;50.970;7.192;2023-01-25T16:42:10;2.70;99.90
35960;DHT22;22043;50.970;7.192;2023-01-25T16:44:36;2.80;99.90
35960;DHT22;22043;50.970;7.192;2023-01-25T16:47:02;2.80;99.90
35960;DHT22;22043;50.970;7.192;2023-01-25T16:49:30;2.80;99.90
35960;DHT22;22043;50.970;7.192;2023-01-25T16:51:56;2.80;99.90
35960;DHT22;22043;50.970;7.192;2023-01-25T16:54:23;2.80;99.90
35960;DHT22;22043;50.970;7.192;2023-01-25T16:56:50;2.80;99.90
35960;DHT22;22043;50.970;7.192;2023-01-25T16:59:17;2.80;99.90
35960;DHT22;22043;50.970;7.192;2023-01-25T17:01:43;2.80;99.90
35960;DHT22;22043;50.970;7.192;2023-01-25T17:04:09;2.80;99.90
35960;DHT22;22043;50.970;7.192;2023-01-25T17:06:37;2.80;99.90
35960;DHT22;22043;50.970;7.192;2023-01-25T17:09:04;2.90;99.90
35960;DHT22;22043;50.970;7.192;2023-01-25T17:11:31;2.90;99.90
35960;DHT22;22043;50.970;7.192;2023-01-25T17:13:58;2.70;99.90
35960;DHT22;22043;50.970;7.192;2023-01-25T17:16:26;2.80;99.90
35960;DHT22;22043;50.970;7.192;2023-01-25T17:18:56;2.80;99.90
35960;DHT22;22043;50.970;7.192;2023-01-25T17:21:22;2.80;99.90
35960;DHT22;22043;50.970;7.192;2023-01-25T17:23:48;2.80;99.90
35960;DHT22;22043;50.970;7.192;2023-01-25T17:26:16;2.80;99.90
35960;DHT22;22043;50.970;7.192;2023-01-25T17:28:43;2.80;99.90
35960;DHT22;22043;50.970;7.192;2023-01-25T17:31:17;2.80;99.90
35960;DHT22;22043;50.970;7.192;2023-01-25T17:33:43;2.70;99.90
35960;DHT22;22043;50.970;7.192;2023-01-25T17:36:09;2.80;99.90
35960;DHT22;22043;50.970;7.192;2023-01-25T17:38:35;2.80;99.90